Time;durP1;ratioP1;P1;durP2;ratioP2;P2;SDS_P1;SDS_P2;PMS_P1;PMS_P2;Temp;Humidity;BMP_temperature;BMP_pressure;BME280_temperature;BME280_humidity;BME280_pressure;Samples;Min_cycle;Max_cycle;Signal;HPM_P1;HPM_P2
2022/05/12 00:00:52;;;;;;;3.72;2.70;;;;;;;23.88;42.09;100137.25;4974762;28;20483;-72
2022/05/12 00:03:17;;;;;;;2.53;1.73;;;;;;;23.86;42.70;100138.75;4974516;28;20492;-72
2022/05/12 00:05:43;;;;;;;3.57;2.30;;;;;;;23.80;42.35;100143.69;4972967;28;20403;-72
2022/05/12 00:08:09;;;;;;;4.27;2.30;;;;;;;23.80;42.69;100145.63;4974652;28;20417;-73
2022/05/12 00:10:34;;;;;;;5.82;2.28;;;;;;;23.80;42.96;100138.16;4974345;28;20419;-72
2022/05/12 00:12:59;;;;;;;2.67;2.00;;;;;;;23.77;43.22;100147.13;4973430;28;20400;-73
2022/05/12 00:15:28;;;;;;;4.83;2.40;;;;;;;23.74;43.64;100150.59;4974297;28;20757;-72
2022/05/12 00:17:54;;;;;;;4.10;2.17;;;;;;;23.70;43.51;100147.69;4974288;28;20395;-72
2022/05/12 00:20:21;;;;;;;4.88;2.33;;;;;;;23.67;43.63;100151.13;4973049;28;21525;-73
2022/05/12 00:22:48;;;;;;;5.77;2.17;;;;;;;23.71;43.33;100156.81;4974060;28;20420;-72
2022/05/12 00:25:22;;;;;;;3.92;1.90;;;;;;;23.72;43.31;100158.41;4973831;28;20797;-72
2022/05/12 00:27:47;;;;;;;4.40;2.10;;;;;;;23.70;43.35;100167.06;4972697;28;20385;-73
2022/05/12 00:30:13;;;;;;;3.93;2.60;;;;;;;23.68;43.30;100171.28;4969301;28;20425;-72
2022/05/12 00:32:41;;;;;;;2.40;2.10;;;;;;;23.69;42.86;100167.38;4964841;28;20400;-73
2022/05/12 00:35:09;;;;;;;8.13;2.20;;;;;;;23.71;43.05;100168.66;4972797;28;20419;-72
2022/05/12 00:37:34;;;;;;;6.25;2.00;;;;;;;23.69;42.24;100167.38;4973941;28;20428;-72
2022/05/12 00:39:59;;;;;;;2.40;1.93;;;;;;;23.67;42.20;100169.69;4973783;28;20447;-73
2022/05/12 00:42:24;;;;;;;3.07;2.00;;;;;;;23.66;42.04;100171.63;4973722;28;20467;-73
2022/05/12 00:44:50;;;;;;;2.10;1.60;;;;;;;23.64;41.78;100170.38;4971131;28;20555;-72
2022/05/12 00:47:15;;;;;;;3.53;1.90;;;;;;;23.63;41.86;100180.63;4973520;28;20408;-72
2022/05/12 00:49:43;;;;;;;4.50;1.87;;;;;;;23.57;42.32;100181.97;4973911;28;21026;-72
2022/05/12 00:52:12;;;;;;;3.50;1.80;;;;;;;23.49;41.70;100182.03;4972608;28;20419;-72
2022/05/12 00:54:49;;;;;;;2.92;1.60;;;;;;;23.47;41.92;100184.34;4973718;28;20388;-72
2022/05/12 00:57:20;;;;;;;3.17;1.90;;;;;;;23.51;41.62;100193.59;4973578;28;20389;-72
2022/05/12 00:59:45;;;;;;;1.52;1.42;;;;;;;23.46;41.97;100191.00;4973565;28;20396;-72
2022/05/12 01:02:17;;;;;;;5.67;1.60;;;;;;;23.44;42.24;100188.59;4973624;28;20768;-73
2022/05/12 01:04:45;;;;;;;2.67;1.67;;;;;;;23.44;42.02;100198.84;4973459;28;20402;-72
2022/05/12 01:07:11;;;;;;;4.95;1.83;;;;;;;23.39;42.20;100202.56;4971588;28;20958;-72
2022/05/12 01:09:37;;;;;;;1.92;1.83;;;;;;;23.37;42.52;100206.81;4973404;28;20410;-72
2022/05/12 01:12:02;;;;;;;2.70;1.70;;;;;;;23.29;42.80;100202.97;4973283;28;20939;-72
2022/05/12 01:14:28;;;;;;;3.95;1.75;;;;;;;23.19;43.10;100203.34;4973187;28;20384;-72
2022/05/12 01:16:56;;;;;;;3.67;1.83;;;;;;;23.16;43.45;100204.84;4973165;28;20447;-73
2022/05/12 01:19:24;;;;;;;5.55;1.70;;;;;;;23.16;43.35;100215.91;4973480;28;20394;-72
2022/05/12 01:21:51;;;;;;;2.95;1.80;;;;;;;23.22;43.21;100214.56;4971887;28;20419;-72
2022/05/12 01:24:19;;;;;;;2.22;1.90;;;;;;;23.23;43.59;100215.38;4971946;28;20455;-72
2022/05/12 01:26:45;;;;;;;1.63;1.58;;;;;;;23.18;43.45;100213.59;4972811;28;20393;-72
2022/05/12 01:29:10;;;;;;;3.55;1.88;;;;;;;23.16;43.58;100220.59;4973245;28;20396;-73
2022/05/12 01:31:37;;;;;;;3.00;1.50;;;;;;;23.11;43.97;100238.22;4973002;28;20392;-73
2022/05/12 01:34:04;;;;;;;1.98;1.85;;;;;;;23.11;44.08;100235.44;4972905;28;20603;-72
2022/05/12 01:36:29;;;;;;;2.50;1.92;;;;;;;23.08;44.25;100243.59;4968286;28;20420;-72
2022/05/12 01:38:55;;;;;;;2.73;2.00;;;;;;;23.04;44.48;100237.94;4972989;28;20765;-72
2022/05/12 01:41:21;;;;;;;2.50;1.88;;;;;;;23.06;44.28;100249.44;4972809;28;20495;-72
2022/05/12 01:43:46;;;;;;;5.87;2.10;;;;;;;23.02;44.51;100244.94;4971672;28;20753;-72
2022/05/12 01:46:12;;;;;;;3.50;1.67;;;;;;;23.00;44.70;100252.72;4972955;28;20514;-73
2022/05/12 01:48:38;;;;;;;4.15;1.90;;;;;;;22.97;44.67;100250.63;4973212;28;20400;-72
2022/05/12 01:51:05;;;;;;;4.97;1.63;;;;;;;22.98;44.73;100247.56;4971821;28;20439;-72
2022/05/12 01:53:30;;;;;;;2.10;1.65;;;;;;;22.97;44.93;100254.22;4971689;28;20403;-72
2022/05/12 01:55:56;;;;;;;6.20;1.40;;;;;;;22.93;44.83;100263.47;4970873;28;20392;-72
2022/05/12 01:58:22;;;;;;;1.87;1.60;;;;;;;22.90;44.50;100264.16;4970995;28;20412;-73
2022/05/12 02:00:47;;;;;;;3.05;1.58;;;;;;;22.89;44.20;100268.88;4969469;28;20474;-73
2022/05/12 02:03:13;;;;;;;1.73;1.53;;;;;;;22.84;44.60;100277.34;4972768;28;20416;-72
2022/05/12 02:05:39;;;;;;;3.40;1.57;;;;;;;22.80;44.49;100273.63;4972624;28;20860;-72
2022/05/12 02:08:06;;;;;;;1.80;1.40;;;;;;;22.77;44.21;100281.75;4972771;28;20804;-72
2022/05/12 02:10:37;;;;;;;1.80;1.63;;;;;;;22.73;44.43;100276.88;4971807;28;20418;-73
2022/05/12 02:13:04;;;;;;;1.17;1.13;;;;;;;22.71;44.71;100289.41;4972652;28;20410;-72
2022/05/12 02:15:29;;;;;;;9.60;1.40;;;;;;;22.71;44.62;100289.41;4972064;28;20443;-72
2022/05/12 02:17:54;;;;;;;3.20;1.20;;;;;;;22.69;44.20;100289.72;4972405;28;20392;-72
2022/05/12 02:20:21;;;;;;;1.77;1.50;;;;;;;22.63;44.39;100296.53;4972584;28;20392;-72
2022/05/12 02:22:47;;;;;;;2.10;1.40;;;;;;;22.64;44.24;100298.19;4970163;28;20818;-73
2022/05/12 02:25:13;;;;;;;2.50;1.30;;;;;;;22.60;44.47;100313.78;4967227;28;20504;-72
2022/05/12 02:27:42;;;;;;;2.15;1.10;;;;;;;22.58;44.58;100315.25;4971711;28;20458;-72
2022/05/12 02:30:11;;;;;;;1.77;1.08;;;;;;;22.59;44.81;100314.91;4972370;28;20396;-72
2022/05/12 02:32:37;;;;;;;5.78;1.38;;;;;;;22.56;44.62;100326.63;4972248;28;20899;-73
2022/05/12 02:35:02;;;;;;;1.10;1.10;;;;;;;22.59;44.55;100325.16;4972404;28;20407;-72
2022/05/12 02:37:27;;;;;;;2.23;1.10;;;;;;;22.55;44.42;100327.78;4972343;28;20871;-72
2022/05/12 02:39:53;;;;;;;2.10;1.20;;;;;;;22.46;44.73;100332.47;4971056;28;20423;-73
2022/05/12 02:42:18;;;;;;;2.92;1.38;;;;;;;22.37;45.01;100339.16;4971004;28;20891;-73
2022/05/12 02:44:43;;;;;;;2.83;1.07;;;;;;;22.39;45.01;100350.69;4971109;28;20518;-73
2022/05/12 02:47:09;;;;;;;2.60;1.20;;;;;;;22.43;45.12;100344.19;4971795;28;20756;-73
2022/05/12 02:49:35;;;;;;;1.20;1.17;;;;;;;22.47;45.39;100355.38;4975989;28;20432;-72
2022/05/12 02:52:01;;;;;;;17.20;2.10;;;;;;;22.49;45.17;100353.91;4974625;28;20518;-73
2022/05/12 02:54:26;;;;;;;11.50;1.57;;;;;;;22.48;44.77;100363.34;4975875;28;20456;-72
2022/05/12 02:56:55;;;;;;;1.93;1.03;;;;;;;22.42;45.24;100364.66;4975784;28;20404;-73
2022/05/12 02:59:21;;;;;;;2.45;1.10;;;;;;;22.37;45.58;100373.09;4960286;28;20392;-72
2022/05/12 03:01:46;;;;;;;6.20;1.20;;;;;;;22.26;45.80;100371.81;4975649;28;20780;-72
2022/05/12 03:04:11;;;;;;;2.80;1.30;;;;;;;22.22;45.91;100368.06;4975605;28;20439;-72
2022/05/12 03:06:37;;;;;;;1.50;1.20;;;;;;;22.18;46.05;100361.56;4970042;28;20471;-72
2022/05/12 03:09:03;;;;;;;2.00;0.73;;;;;;;22.16;45.86;100356.38;4975475;28;20875;-72
2022/05/12 03:11:28;;;;;;;0.82;0.82;;;;;;;22.19;45.45;100364.03;4969888;28;20403;-72
2022/05/12 03:13:54;;;;;;;1.20;0.90;;;;;;;22.20;45.72;100368.38;4975585;28;20922;-72
2022/05/12 03:16:20;;;;;;;4.40;1.27;;;;;;;22.22;45.59;100368.91;4975392;28;20451;-72
2022/05/12 03:18:47;;;;;;;3.53;1.30;;;;;;;22.15;45.63;100374.09;4975400;28;20404;-72
2022/05/12 03:21:15;;;;;;;1.90;1.08;;;;;;;22.12;45.40;100365.63;4974272;28;20447;-72
2022/05/12 03:23:40;;;;;;;4.38;1.02;;;;;;;22.11;45.91;100372.28;4964666;28;20449;-73
2022/05/12 03:26:06;;;;;;;1.27;0.90;;;;;;;21.98;46.25;100376.81;4969329;28;20436;-72
2022/05/12 03:28:33;;;;;;;3.60;1.30;;;;;;;21.88;46.52;100381.78;4975399;28;20388;-72
2022/05/12 03:30:58;;;;;;;1.92;1.10;;;;;;;21.79;46.95;100384.53;4973875;28;20404;-72
2022/05/12 03:33:23;;;;;;;4.15;0.95;;;;;;;21.78;47.02;100384.84;4975131;28;20420;-72
2022/05/12 03:35:49;;;;;;;1.40;0.83;;;;;;;21.79;47.00;100386.50;4974013;28;20471;-72
2022/05/12 03:38:15;;;;;;;1.15;0.98;;;;;;;21.81;46.91;100389.72;4974973;28;20392;-72
2022/05/12 03:40:40;;;;;;;1.47;0.67;;;;;;;21.79;47.23;100397.53;4975193;28;20395;-72
2022/05/12 03:43:06;;;;;;;3.50;0.93;;;;;;;21.76;47.22;100395.41;4975351;28;20430;-72
2022/05/12 03:45:33;;;;;;;3.28;1.40;;;;;;;21.65;47.25;100398.47;4974964;28;20393;-72
2022/05/12 03:47:59;;;;;;;2.70;0.90;;;;;;;21.68;47.50;100399.75;4975029;28;20400;-72
2022/05/12 03:50:27;;;;;;;1.90;1.17;;;;;;;21.64;47.38;100410.63;4972343;28;20506;-72
2022/05/12 03:52:54;;;;;;;1.83;1.00;;;;;;;21.65;47.40;100423.28;4974749;28;20447;-72
2022/05/12 03:55:23;;;;;;;1.38;0.88;;;;;;;21.59;47.58;100413.53;4974881;28;20427;-72
2022/05/12 03:57:52;;;;;;;2.72;1.67;;;;;;;21.60;47.81;100419.84;4974899;28;20436;-73
2022/05/12 04:00:23;;;;;;;3.17;1.65;;;;;;;21.58;47.85;100422.09;4968071;28;20392;-72
2022/05/12 04:02:49;;;;;;;2.83;1.40;;;;;;;21.59;47.65;100419.03;4973433;28;20798;-72
2022/05/12 04:05:15;;;;;;;3.15;1.10;;;;;;;21.57;47.82;100424.03;4974205;28;20484;-72
2022/05/12 04:07:42;;;;;;;1.83;0.93;;;;;;;21.48;48.01;100430.66;4973841;28;20396;-72
2022/05/12 04:10:08;;;;;;;2.47;0.85;;;;;;;21.41;48.44;100438.56;4967874;28;20843;-72
2022/05/12 04:12:34;;;;;;;1.42;1.08;;;;;;;21.37;48.70;100438.38;4974586;28;20455;-72
2022/05/12 04:14:59;;;;;;;2.03;1.10;;;;;;;21.33;48.73;100437.41;4974224;28;20397;-72
2022/05/12 04:17:24;;;;;;;2.40;0.83;;;;;;;21.32;48.80;100441.28;4965947;28;20672;-73
2022/05/12 04:19:50;;;;;;;3.40;1.00;;;;;;;21.31;48.89;100445.16;4954911;28;20463;-72
2022/05/12 04:22:15;;;;;;;1.10;0.80;;;;;;;21.30;48.75;100446.31;4959119;28;20521;-73
2022/05/12 04:24:41;;;;;;;3.47;0.93;;;;;;;21.30;48.90;100464.81;4968305;28;20532;-73
2022/05/12 04:27:06;;;;;;;4.83;1.07;;;;;;;21.27;49.03;100460.75;4973785;28;20991;-72
2022/05/12 04:29:35;;;;;;;3.30;0.98;;;;;;;21.27;49.25;100463.50;4973916;28;20400;-72
2022/05/12 04:32:00;;;;;;;2.55;0.95;;;;;;;21.23;49.15;100464.44;4973950;28;20389;-72
2022/05/12 04:37:10;;;;;;;1.48;0.77;;;;;;;21.31;49.15;100463.66;4969584;28;20767;-72
2022/05/12 04:39:35;;;;;;;2.30;0.77;;;;;;;21.24;49.34;100461.34;4970481;28;20408;-72
2022/05/12 04:42:00;;;;;;;2.50;0.67;;;;;;;21.24;49.52;100471.59;4968172;28;20449;-72
2022/05/12 04:44:26;;;;;;;1.57;0.50;;;;;;;21.25;49.54;100467.69;4963929;28;20879;-72
2022/05/12 04:46:52;;;;;;;2.70;0.70;;;;;;;21.20;49.50;100471.41;4966889;28;20494;-72
2022/05/12 04:49:18;;;;;;;1.67;0.80;;;;;;;21.17;49.63;100472.81;4971814;28;20760;-74
2022/05/12 04:51:43;;;;;;;3.93;1.00;;;;;;;21.23;49.50;100476.28;4973056;28;20446;-73
2022/05/12 04:54:11;;;;;;;1.48;0.63;;;;;;;21.28;49.27;100481.63;4972926;28;20423;-72
2022/05/12 04:56:38;;;;;;;1.25;0.70;;;;;;;21.24;49.54;100488.13;4968268;28;20458;-72
2022/05/12 04:59:05;;;;;;;2.00;0.65;;;;;;;21.24;49.50;100490.88;4972338;28;20405;-72
2022/05/12 05:01:31;;;;;;;1.38;0.60;;;;;;;21.20;49.79;100487.94;4966939;28;20419;-72
2022/05/12 05:03:59;;;;;;;1.85;0.70;;;;;;;21.21;49.63;100493.09;4971908;28;20408;-74
2022/05/12 05:06:25;;;;;;;3.08;0.80;;;;;;;21.24;49.68;100502.69;4965314;28;20418;-73
2022/05/12 05:08:51;;;;;;;1.80;0.83;;;;;;;21.17;49.83;100503.13;4968396;28;20875;-73
2022/05/12 05:11:16;;;;;;;1.20;0.60;;;;;;;21.14;49.93;100505.72;4970964;28;20427;-73
2022/05/12 05:13:41;;;;;;;2.87;0.73;;;;;;;21.17;49.99;100513.38;4973404;28;20940;-73
2022/05/12 05:16:06;;;;;;;1.90;1.00;;;;;;;21.11;50.11;100515.41;4973094;28;20404;-74
2022/05/12 05:18:32;;;;;;;1.63;0.73;;;;;;;21.16;49.95;100520.81;4973377;28;20400;-74
2022/05/12 05:20:57;;;;;;;0.70;0.70;;;;;;;21.15;50.01;100530.19;4972151;28;20399;-74
2022/05/12 05:23:23;;;;;;;4.70;0.70;;;;;;;21.18;50.17;100531.50;4972265;28;20506;-74
2022/05/12 05:25:49;;;;;;;1.20;0.77;;;;;;;21.24;50.04;100534.97;4972631;28;20412;-72
2022/05/12 05:28:15;;;;;;;3.88;0.80;;;;;;;21.19;50.09;100542.22;4973112;28;20487;-72
2022/05/12 05:30:41;;;;;;;2.33;0.77;;;;;;;21.13;50.29;100542.66;4972754;28;20484;-72
2022/05/12 05:33:07;;;;;;;2.30;0.70;;;;;;;21.14;50.37;100544.31;4972890;28;20891;-73
2022/05/12 05:35:34;;;;;;;4.20;0.90;;;;;;;21.11;50.78;100542.97;4969577;28;20423;-72
2022/05/12 05:38:00;;;;;;;2.50;0.50;;;;;;;21.17;50.54;100561.00;4973110;28;20752;-72
2022/05/12 05:40:26;;;;;;;5.00;0.80;;;;;;;21.17;50.70;100562.97;4972937;28;20396;-72
2022/05/12 05:42:52;;;;;;;1.65;1.55;;;;;;;21.18;50.64;100559.88;4971893;28;20424;-72
2022/05/12 05:45:18;;;;;;;3.30;1.08;;;;;;;21.09;50.90;100567.28;4972607;28;20495;-71
2022/05/12 05:47:54;;;;;;;1.48;0.95;;;;;;;21.09;51.04;100563.69;4973085;28;20396;-72
2022/05/12 05:50:27;;;;;;;4.20;1.47;;;;;;;21.13;50.97;100575.75;4972835;28;20392;-71
2022/05/12 05:55:36;;;;;;;1.15;0.77;;;;;;;21.23;50.78;100593.97;4972167;28;20407;-72
2022/05/12 05:58:05;;;;;;;2.63;0.98;;;;;;;21.15;51.24;100590.00;4972982;28;20388;-72
2022/05/12 06:00:34;;;;;;;2.65;1.48;;;;;;;21.23;51.02;100599.47;4965214;28;20494;-72
2022/05/12 06:03:02;;;;;;;1.95;0.80;;;;;;;21.29;50.98;100595.47;4972419;28;20815;-72
2022/05/12 06:05:28;;;;;;;3.03;0.77;;;;;;;21.20;51.22;100600.94;4972620;28;20400;-71
2022/05/12 06:07:54;;;;;;;2.80;0.80;;;;;;;21.18;51.41;100608.69;4966659;28;20931;-71
2022/05/12 06:10:20;;;;;;;0.98;0.80;;;;;;;21.13;51.69;100606.88;4972004;28;20408;-71
2022/05/12 06:12:46;;;;;;;1.98;0.85;;;;;;;21.15;51.79;100601.84;4970441;28;20399;-71
2022/05/12 06:15:11;;;;;;;1.40;1.02;;;;;;;21.13;51.83;100609.63;4972553;28;20392;-71
2022/05/12 06:17:37;;;;;;;3.00;1.27;;;;;;;21.11;51.94;100608.28;4969155;28;20910;-71
2022/05/12 06:20:06;;;;;;;2.50;1.27;;;;;;;21.12;51.86;100609.94;4972112;28;20408;-71
2022/05/12 06:22:32;;;;;;;1.97;1.00;;;;;;;21.15;51.74;100617.56;4972748;28;20827;-71
2022/05/12 06:24:57;;;;;;;2.10;0.90;;;;;;;21.15;51.75;100617.56;4975182;28;20891;-71
2022/05/12 06:27:22;;;;;;;1.85;0.70;;;;;;;21.25;51.66;100609.06;4990894;28;20405;-71
2022/05/12 06:29:48;;;;;;;5.00;0.93;;;;;;;21.33;51.65;100619.34;4980662;28;20415;-71
2022/05/12 06:32:15;;;;;;;2.27;0.90;;;;;;;21.36;51.58;100618.72;4975881;28;20416;-71
2022/05/12 06:34:46;;;;;;;3.10;0.98;;;;;;;21.48;51.44;100624.50;4973373;28;20427;-72
2022/05/12 06:37:12;;;;;;;2.05;0.85;;;;;;;21.61;51.35;100622.78;4972808;28;20436;-73
2022/05/12 06:39:40;;;;;;;0.95;0.70;;;;;;;21.65;51.11;100632.06;4975046;28;21302;-71
2022/05/12 06:42:06;;;;;;;2.80;0.90;;;;;;;21.68;51.17;100635.00;4976215;28;20503;-71
2022/05/12 06:44:32;;;;;;;3.30;0.70;;;;;;;21.70;50.98;100638.25;4976083;28;20403;-71
2022/05/12 06:46:57;;;;;;;0.60;0.60;;;;;;;21.70;50.92;100646.53;4976094;28;20392;-71
2022/05/12 06:49:22;;;;;;;1.10;1.00;;;;;;;21.67;51.05;100644.41;4974631;28;20491;-71
2022/05/12 06:51:48;;;;;;;1.60;0.70;;;;;;;21.59;51.30;100647.94;4974679;28;20425;-72
2022/05/12 06:54:14;;;;;;;4.38;1.02;;;;;;;21.58;50.88;100651.00;4975886;28;20807;-71
2022/05/12 06:56:43;;;;;;;1.85;0.77;;;;;;;21.53;51.24;100654.72;4975698;28;20392;-71
2022/05/12 06:59:09;;;;;;;2.05;0.88;;;;;;;21.55;50.91;100660.72;4975733;28;20407;-71
2022/05/12 07:01:35;;;;;;;5.20;0.80;;;;;;;21.55;50.99;100663.47;4975751;28;20411;-71
2022/05/12 07:04:00;;;;;;;4.15;0.82;;;;;;;21.50;50.93;100657.28;4973081;28;20420;-71
2022/05/12 07:06:27;;;;;;;1.40;0.80;;;;;;;21.48;50.79;100670.53;4975613;28;20403;-72
2022/05/12 07:08:52;;;;;;;2.40;0.90;;;;;;;21.60;50.54;100668.06;4975636;28;20428;-71
2022/05/12 07:11:18;;;;;;;0.95;0.60;;;;;;;21.65;50.88;100663.22;4975905;28;20430;-71
2022/05/12 07:13:43;;;;;;;3.47;1.07;;;;;;;21.67;50.85;100668.41;4975475;28;20435;-71
2022/05/12 07:16:09;;;;;;;3.10;1.43;;;;;;;21.69;50.66;100671.69;4975488;28;20396;-71
2022/05/12 07:18:35;;;;;;;5.00;1.05;;;;;;;21.69;50.82;100664.25;4974063;28;20490;-71
2022/05/12 07:26:36;;;;;;;3.63;1.35;;;;;;;21.60;49.88;100659.78;4975212;28;20382;-71
2022/05/12 07:29:06;;;;;;;2.47;0.70;;;;;;;21.61;50.04;100664.16;4975340;28;20898;-71
2022/05/12 07:31:32;;;;;;;4.40;1.00;;;;;;;21.56;49.82;100667.06;4975244;28;20408;-71
2022/05/12 07:33:58;;;;;;;1.77;0.80;;;;;;;21.53;49.87;100663.00;4972576;28;20783;-71
2022/05/12 07:36:27;;;;;;;4.47;1.05;;;;;;;21.59;50.03;100669.19;4973852;28;20537;-70
2022/05/12 07:38:53;;;;;;;4.60;1.30;;;;;;;21.54;49.91;100672.03;4975258;28;20388;-71
2022/05/12 07:41:19;;;;;;;2.50;1.40;;;;;;;21.48;50.23;100676.06;4974988;28;20398;-71
2022/05/12 07:43:46;;;;;;;5.30;0.87;;;;;;;21.49;50.17;100673.00;4975051;28;20396;-71
2022/05/12 07:46:13;;;;;;;2.50;0.90;;;;;;;21.57;49.74;100661.22;4974835;28;20388;-71
2022/05/12 07:48:39;;;;;;;2.38;0.93;;;;;;;21.70;50.22;100667.81;4971586;28;20733;-71
2022/05/12 07:51:05;;;;;;;4.22;0.93;;;;;;;21.74;49.64;100669.63;4974852;28;20414;-71
2022/05/12 07:53:31;;;;;;;4.40;1.10;;;;;;;21.81;49.84;100680.22;4974747;28;20415;-71
2022/05/12 07:55:56;;;;;;;2.90;0.80;;;;;;;21.82;50.04;100676.34;4974638;28;20499;-71
2022/05/12 07:58:21;;;;;;;5.10;1.03;;;;;;;21.85;50.08;100670.19;4974804;28;20411;-71
2022/05/12 08:00:47;;;;;;;1.97;1.23;;;;;;;21.94;50.37;100679.34;4964070;28;20404;-71
2022/05/12 08:03:12;;;;;;;2.40;0.90;;;;;;;21.94;50.53;100681.28;4971852;28;20427;-71
2022/05/12 08:05:38;;;;;;;5.23;1.20;;;;;;;21.92;50.02;100680.81;4974525;28;20463;-71
2022/05/12 08:08:05;;;;;;;4.70;1.10;;;;;;;21.94;49.13;100676.59;4973236;28;20456;-71
2022/05/12 08:10:31;;;;;;;2.05;0.60;;;;;;;21.99;49.38;100686.69;4974557;28;20392;-71
2022/05/12 08:12:56;;;;;;;1.40;0.70;;;;;;;22.02;49.25;100686.88;4974496;28;20399;-71
2022/05/12 08:15:25;;;;;;;1.73;0.97;;;;;;;22.03;49.14;100682.97;4973390;28;20392;-71
2022/05/12 08:17:53;;;;;;;2.55;0.93;;;;;;;22.08;49.28;100695.84;4974487;28;20500;-71
2022/05/12 08:20:20;;;;;;;2.00;0.90;;;;;;;22.12;49.50;100694.09;4974406;28;20464;-71
2022/05/12 08:22:45;;;;;;;3.35;1.00;;;;;;;22.15;49.43;100694.25;4972956;28;20427;-71
2022/05/12 08:25:11;;;;;;;5.00;0.83;;;;;;;22.17;48.57;100697.50;4974214;28;20872;-71
2022/05/12 08:27:38;;;;;;;4.03;0.75;;;;;;;22.19;48.55;100699.97;4974213;28;20438;-72
2022/05/12 08:30:05;;;;;;;2.50;0.90;;;;;;;22.24;48.69;100699.81;4973200;28;20444;-71
2022/05/12 08:32:30;;;;;;;2.47;1.20;;;;;;;22.25;48.98;100701.47;4973235;28;20409;-72
2022/05/12 08:34:56;;;;;;;2.57;0.67;;;;;;;22.33;48.22;100708.16;4974181;28;20729;-72
2022/05/12 08:37:22;;;;;;;2.90;1.20;;;;;;;22.41;48.83;100708.19;4973981;28;20799;-71
2022/05/12 08:39:47;;;;;;;3.40;0.90;;;;;;;22.50;48.78;100716.50;4974067;28;20404;-71
2022/05/12 08:42:35;;;;;;;4.32;1.05;;;;;;;22.63;48.87;100715.59;4973774;28;20894;-71
2022/05/12 08:45:06;;;;;;;1.05;0.63;;;;;;;22.80;48.67;100715.69;4972667;28;20388;-71
2022/05/12 08:47:36;;;;;;;2.92;1.25;;;;;;;22.85;47.84;100709.22;4973746;28;20404;-70
2022/05/12 08:50:07;;;;;;;3.50;0.75;;;;;;;22.83;47.80;100706.78;4972795;28;20395;-71
2022/05/12 08:52:43;;;;;;;4.43;1.03;;;;;;;23.02;47.65;100701.78;4973641;28;20395;-71
2022/05/12 08:55:31;;;;;;;1.60;0.90;;;;;;;23.02;47.16;100709.28;4973566;28;20756;-71
2022/05/12 08:58:02;;;;;;;1.92;0.80;;;;;;;22.94;47.60;100716.41;4986375;28;20424;-71
2022/05/12 09:00:33;;;;;;;2.15;0.80;;;;;;;22.93;47.70;100706.47;4971277;28;20392;-71
2022/05/12 09:03:20;;;;;;;2.90;1.55;;;;;;;22.94;47.79;100710.06;4973273;28;20499;-72
2022/05/12 09:06:03;;;;;;;3.70;0.90;;;;;;;22.98;47.98;100719.34;4972224;28;20415;-72
2022/05/12 09:08:31;;;;;;;2.78;1.10;;;;;;;22.96;48.46;100710.53;4973571;28;20804;-71
2022/05/12 09:11:20;;;;;;;0.93;0.75;;;;;;;22.90;48.43;100720.94;4967366;28;20779;-71
2022/05/12 09:13:52;;;;;;;3.80;1.20;;;;;;;22.87;47.85;100727.09;4972534;28;20463;-71
2022/05/12 09:16:28;;;;;;;4.57;1.20;;;;;;;22.83;48.53;100712.28;4973506;28;20392;-71
2022/05/12 09:18:54;;;;;;;5.97;0.97;;;;;;;23.01;48.14;100714.00;4957793;28;20880;-71
2022/05/12 09:21:31;;;;;;;2.85;0.95;;;;;;;23.19;47.63;100712.06;4973210;28;20399;-71
2022/05/12 09:23:57;;;;;;;1.70;1.20;;;;;;;23.28;47.22;100710.13;4972062;28;20400;-71
2022/05/12 09:26:46;;;;;;;3.20;1.13;;;;;;;23.54;46.91;100715.72;4973045;28;20423;-71
2022/05/12 09:29:26;;;;;;;1.25;0.95;;;;;;;23.65;46.79;100704.00;4973342;28;20404;-71
2022/05/12 09:32:20;;;;;;;2.50;0.73;;;;;;;23.94;46.07;100706.06;4973121;28;20434;-71
2022/05/12 09:35:04;;;;;;;3.53;0.90;;;;;;;24.08;45.11;100709.47;4957249;28;20445;-71
2022/05/12 09:37:31;;;;;;;3.85;1.40;;;;;;;24.28;45.18;100705.22;4973042;28;20396;-71
2022/05/12 09:40:37;;;;;;;1.88;0.93;;;;;;;24.53;45.40;100697.97;4972127;28;20424;-71
2022/05/12 09:43:28;;;;;;;4.25;1.00;;;;;;;24.79;44.18;100707.81;4961066;28;20420;-71
2022/05/12 09:46:18;;;;;;;3.40;1.45;;;;;;;25.07;43.38;100699.84;4969893;28;20475;-71
2022/05/12 09:48:47;;;;;;;3.85;1.00;;;;;;;25.64;42.60;100700.09;4960140;28;20399;-71
2022/05/12 09:51:38;;;;;;;4.32;0.90;;;;;;;26.68;40.28;100703.41;4971632;28;20405;-71
2022/05/12 09:54:25;;;;;;;2.20;1.30;;;;;;;27.29;38.20;100689.47;4972823;28;20403;-71
2022/05/12 09:57:20;;;;;;;1.17;0.68;;;;;;;28.02;37.50;100692.03;4961292;28;20901;-71
2022/05/12 09:59:58;;;;;;;3.28;1.30;;;;;;;28.89;35.72;100684.38;4972124;28;20415;-70
2022/05/12 10:08:19;;;;;;;1.80;1.00;;;;;;;30.62;32.14;100676.81;4973002;28;20387;-71
2022/05/12 10:10:49;;;;;;;1.80;0.90;;;;;;;30.88;31.26;100690.00;4971392;28;20473;-70
2022/05/12 10:13:39;;;;;;;2.75;0.90;;;;;;;31.47;30.61;100680.88;4972747;28;20447;-71
2022/05/12 10:16:06;;;;;;;4.68;1.50;;;;;;;30.45;31.61;100680.09;4958145;28;20393;-71
2022/05/12 10:19:05;;;;;;;4.95;1.10;;;;;;;29.27;33.83;100686.47;4971366;28;20412;-71
2022/05/12 10:21:45;;;;;;;3.97;1.00;;;;;;;29.77;33.04;100677.97;4964843;28;20454;-71
2022/05/12 10:24:27;;;;;;;2.10;0.90;;;;;;;30.72;31.72;100681.75;4972584;28;20471;-71
2022/05/12 10:26:59;;;;;;;2.85;0.88;;;;;;;31.57;30.55;100674.63;4972747;28;20413;-72
2022/05/12 10:29:41;;;;;;;3.63;0.90;;;;;;;31.89;30.78;100678.63;4971367;28;20396;-71
2022/05/12 10:32:34;;;;;;;4.10;1.20;;;;;;;32.08;29.98;100679.63;4972860;28;20394;-71
2022/05/12 10:35:18;;;;;;;2.15;0.70;;;;;;;31.75;29.92;100669.22;4971445;28;20412;-71
2022/05/12 10:38:05;;;;;;;3.85;0.95;;;;;;;32.19;29.16;100669.34;4958291;28;20392;-72
2022/05/12 10:40:39;;;;;;;5.00;1.00;;;;;;;31.42;30.22;100672.00;4972546;28;20393;-69
2022/05/12 10:43:34;;;;;;;4.70;0.93;;;;;;;32.48;28.94;100660.00;4972188;28;20470;-69
2022/05/12 10:46:11;;;;;;;4.23;0.70;;;;;;;33.29;27.28;100674.66;4971330;28;20462;-69
2022/05/12 10:49:02;;;;;;;4.13;0.90;;;;;;;33.64;26.72;100659.19;4971628;28;20416;-69
2022/05/12 10:51:52;;;;;;;4.20;1.00;;;;;;;33.87;26.46;100656.84;4956587;28;20492;-69
2022/05/12 10:54:37;;;;;;;4.17;0.97;;;;;;;33.69;26.64;100656.00;4972336;28;20872;-70
2022/05/12 10:57:21;;;;;;;1.90;0.70;;;;;;;34.02;26.51;100655.66;4971981;28;20412;-69
2022/05/12 11:00:00;;;;;;;1.43;0.90;;;;;;;33.51;27.54;100663.50;4970179;28;20483;-70
2022/05/12 11:02:35;;;;;;;1.70;1.00;;;;;;;32.79;28.15;100659.47;4971488;28;20424;-69
2022/05/12 11:05:10;;;;;;;1.50;0.80;;;;;;;33.13;27.79;100648.09;4971286;28;20683;-69
2022/05/12 11:07:45;;;;;;;1.33;0.95;;;;;;;33.54;27.21;100645.88;4972125;28;20415;-71
2022/05/12 11:10:27;;;;;;;1.60;1.10;;;;;;;34.09;26.37;100640.81;4981163;28;20396;-70
2022/05/12 11:12:59;;;;;;;2.27;0.70;;;;;;;34.46;25.99;100635.66;4975186;28;20403;-70
2022/05/12 11:15:45;;;;;;;3.22;0.80;;;;;;;34.07;25.95;100632.78;4974806;28;20389;-70
2022/05/12 11:18:26;;;;;;;1.52;0.90;;;;;;;34.04;25.97;100632.78;4975612;28;20428;-70
2022/05/12 11:21:01;;;;;;;1.05;0.70;;;;;;;33.53;27.12;100630.19;4960168;28;20388;-69
2022/05/12 11:23:50;;;;;;;1.92;0.75;;;;;;;33.59;27.10;100632.22;4978199;28;20414;-69
2022/05/12 11:26:27;;;;;;;1.38;1.00;;;;;;;33.55;27.22;100628.63;4978039;28;20444;-69
2022/05/12 11:32:12;;;;;;;5.10;0.90;;;;;;;33.73;27.14;100625.88;4975522;28;20801;-70
2022/05/12 11:34:39;;;;;;;1.27;0.60;;;;;;;34.11;26.38;100624.34;4968489;28;20431;-70
2022/05/12 11:37:26;;;;;;;2.35;0.85;;;;;;;34.01;26.60;100617.53;4973743;28;20827;-70
2022/05/12 11:39:55;;;;;;;3.00;1.00;;;;;;;33.18;27.43;100614.81;4973788;28;20818;-70
2022/05/12 11:42:25;;;;;;;1.50;0.65;;;;;;;33.37;26.88;100622.13;4974690;28;20416;-69
2022/05/12 11:45:03;;;;;;;2.38;0.85;;;;;;;33.51;26.46;100616.56;4980270;28;20412;-69
2022/05/12 11:47:55;;;;;;;2.25;0.60;;;;;;;33.33;27.16;100618.47;4975063;28;20393;-69
2022/05/12 11:50:31;;;;;;;1.13;0.75;;;;;;;33.17;27.43;100612.38;4959547;28;20400;-69
2022/05/12 11:53:20;;;;;;;1.40;0.70;;;;;;;33.40;27.14;100618.50;4971694;28;20428;-69
2022/05/12 11:55:57;;;;;;;2.42;0.80;;;;;;;32.71;28.53;100624.13;4971485;28;20911;-70